Time;durP1;ratioP1;P1;durP2;ratioP2;P2;SDS_P1;SDS_P2;PMS_P1;PMS_P2;Temp;Humidity;BMP_temperature;BMP_pressure;BME280_temperature;BME280_humidity;BME280_pressure;Samples;Min_cycle;Max_cycle;Signal;HPM_P1;HPM_P2
2023/05/10 00:02:13;;;;;;;1.73;1.10;;;;;;;;;;4943707;29;20460;-90
2023/05/10 00:04:39;;;;;;;1.33;1.03;;;;;;;;;;4928760;29;20487;-90
2023/05/10 00:07:05;;;;;;;1.37;1.00;;;;;;;;;;4936529;29;20462;-90
2023/05/10 00:09:31;;;;;;;1.20;0.83;;;;;;;;;;4944410;29;20979;-90
2023/05/10 00:11:58;;;;;;;6.40;1.43;;;;;;;;;;4941724;29;20428;-90
2023/05/10 00:14:24;;;;;;;1.23;0.83;;;;;;;;;;4942386;29;20466;-90
2023/05/10 00:16:50;;;;;;;1.10;0.70;;;;;;;;;;4945458;29;20485;-90
2023/05/10 00:19:16;;;;;;;1.63;0.90;;;;;;;;;;4930298;29;20451;-91
2023/05/10 00:21:42;;;;;;;1.13;0.67;;;;;;;;;;4931563;29;20448;-90
2023/05/10 00:24:08;;;;;;;5.70;0.83;;;;;;;;;;4937537;29;20460;-88
2023/05/10 00:26:34;;;;;;;1.03;0.60;;;;;;;;;;4935967;29;20444;-91
2023/05/10 00:29:00;;;;;;;2.13;0.90;;;;;;;;;;4929362;29;20441;-89
2023/05/10 00:31:26;;;;;;;1.10;0.60;;;;;;;;;;4948277;29;20446;-90
2023/05/10 00:33:52;;;;;;;1.60;1.00;;;;;;;;;;4911558;29;20501;-88
2023/05/10 00:36:18;;;;;;;1.20;0.90;;;;;;;;;;4950195;28;20528;-89
2023/05/10 00:38:44;;;;;;;1.20;0.80;;;;;;;;;;4946280;29;20424;-89
2023/05/10 00:41:10;;;;;;;1.43;0.97;;;;;;;;;;4935490;29;20447;-92
2023/05/10 00:43:36;;;;;;;2.87;0.60;;;;;;;;;;4948380;29;20455;-91
2023/05/10 00:46:03;;;;;;;3.07;0.60;;;;;;;;;;4929739;29;20446;-89
2023/05/10 00:48:29;;;;;;;1.00;0.60;;;;;;;;;;4940403;29;20452;-88
2023/05/10 00:50:55;;;;;;;2.87;0.63;;;;;;;;;;4944826;29;20451;-92
2023/05/10 00:53:21;;;;;;;1.00;0.60;;;;;;;;;;4942329;29;20446;-92
2023/05/10 00:55:47;;;;;;;1.10;0.60;;;;;;;;;;4940717;29;20459;-89
2023/05/10 00:58:13;;;;;;;1.73;0.53;;;;;;;;;;4936044;29;20460;-89
2023/05/10 01:00:40;;;;;;;0.90;0.50;;;;;;;;;;4941464;29;20431;-88
2023/05/10 01:03:06;;;;;;;1.00;0.60;;;;;;;;;;4942339;29;20439;-90
2023/05/10 01:05:32;;;;;;;0.90;0.50;;;;;;;;;;4943079;29;20469;-90
2023/05/10 01:07:58;;;;;;;1.17;0.70;;;;;;;;;;4926168;29;20456;-90
2023/05/10 01:13:34;;;;;;;1.77;0.50;;;;;;;;;;4948723;29;20477;-93
2023/05/10 01:16:03;;;;;;;0.97;0.60;;;;;;;;;;4931467;29;20477;-93
2023/05/10 01:18:30;;;;;;;1.10;0.60;;;;;;;;;;4941332;29;20436;-91
2023/05/10 01:21:03;;;;;;;0.90;0.50;;;;;;;;;;4943463;29;20575;-93
2023/05/10 01:23:35;;;;;;;3.27;0.60;;;;;;;;;;4941327;29;20432;-90
2023/05/10 01:26:04;;;;;;;1.23;0.50;;;;;;;;;;4947619;28;20951;-93
2023/05/10 01:28:37;;;;;;;2.90;0.73;;;;;;;;;;4943120;29;20435;-90
2023/05/10 01:31:04;;;;;;;1.30;0.70;;;;;;;;;;4944985;28;20451;-91
2023/05/10 01:33:45;;;;;;;1.00;0.60;;;;;;;;;;4935345;29;20432;-91
2023/05/10 01:36:25;;;;;;;1.40;0.77;;;;;;;;;;4943030;29;20467;-93
2023/05/10 01:38:52;;;;;;;1.43;0.60;;;;;;;;;;4925723;29;20443;-94
2023/05/10 01:41:25;;;;;;;1.47;0.70;;;;;;;;;;4946191;28;20490;-93
2023/05/10 01:43:54;;;;;;;2.30;0.70;;;;;;;;;;4941661;29;20435;-93
2023/05/10 01:46:23;;;;;;;1.10;0.63;;;;;;;;;;4946757;29;20451;-93
2023/05/10 01:48:49;;;;;;;1.10;0.73;;;;;;;;;;4944733;29;20434;-93
2023/05/10 01:51:20;;;;;;;1.10;0.70;;;;;;;;;;4945904;29;20511;-94
2023/05/10 01:53:46;;;;;;;1.73;0.70;;;;;;;;;;4937432;29;20463;-93
2023/05/10 01:56:12;;;;;;;1.27;0.70;;;;;;;;;;4933937;29;20483;-93
2023/05/10 01:58:38;;;;;;;1.00;0.67;;;;;;;;;;4942773;29;20482;-92
2023/05/10 02:01:04;;;;;;;1.03;0.70;;;;;;;;;;4947974;29;20467;-92
2023/05/10 02:03:30;;;;;;;1.00;0.60;;;;;;;;;;4945999;29;20438;-93
2023/05/10 02:05:56;;;;;;;3.00;0.60;;;;;;;;;;4909870;29;20466;-93
2023/05/10 02:08:22;;;;;;;1.00;0.60;;;;;;;;;;4948424;29;20431;-90
2023/05/10 02:10:48;;;;;;;2.90;0.80;;;;;;;;;;4934963;29;20471;-93
2023/05/10 02:13:15;;;;;;;1.10;0.73;;;;;;;;;;4928105;29;20459;-93
2023/05/10 02:15:41;;;;;;;1.40;0.90;;;;;;;;;;4938594;29;20460;-94
2023/05/10 02:18:07;;;;;;;5.13;0.93;;;;;;;;;;4943489;29;20453;-93
2023/05/10 02:20:33;;;;;;;1.07;0.70;;;;;;;;;;4914038;29;20853;-93
2023/05/10 02:22:59;;;;;;;1.70;0.70;;;;;;;;;;4950201;29;20440;-93
2023/05/10 02:25:25;;;;;;;1.30;0.60;;;;;;;;;;4914705;29;20436;-93
2023/05/10 02:27:51;;;;;;;1.10;0.73;;;;;;;;;;4910644;29;20440;-93
2023/05/10 02:30:17;;;;;;;1.63;0.67;;;;;;;;;;4945293;29;20537;-94
2023/05/10 02:32:43;;;;;;;1.17;0.70;;;;;;;;;;4943727;29;20552;-94
2023/05/10 02:35:09;;;;;;;1.03;0.70;;;;;;;;;;4941537;29;20501;-93
2023/05/10 02:37:36;;;;;;;1.40;0.70;;;;;;;;;;4942176;29;20896;-93
2023/05/10 02:40:03;;;;;;;1.63;1.53;;;;;;;;;;4942457;29;20419;-94
2023/05/10 02:42:29;;;;;;;1.40;0.80;;;;;;;;;;4944765;29;20441;-94
2023/05/10 02:44:57;;;;;;;2.30;0.60;;;;;;;;;;4942574;29;20571;-94
2023/05/10 02:47:23;;;;;;;1.20;0.87;;;;;;;;;;4943224;29;20455;-94
2023/05/10 02:49:49;;;;;;;3.13;0.73;;;;;;;;;;4941072;29;20444;-90
2023/05/10 02:52:20;;;;;;;1.13;0.70;;;;;;;;;;4943495;29;20467;-93
2023/05/10 02:54:46;;;;;;;1.70;0.73;;;;;;;;;;4943992;29;21053;-94
2023/05/10 02:57:16;;;;;;;1.20;0.83;;;;;;;;;;4942914;29;20466;-94
2023/05/10 02:59:45;;;;;;;2.03;0.80;;;;;;;;;;4926252;29;20466;-94
2023/05/10 03:02:11;;;;;;;1.30;0.90;;;;;;;;;;4933102;29;20463;-93
2023/05/10 03:04:37;;;;;;;1.40;0.70;;;;;;;;;;4948339;29;20435;-94
2023/05/10 03:07:03;;;;;;;1.17;0.70;;;;;;;;;;4940362;29;20966;-94
2023/05/10 03:09:29;;;;;;;1.20;0.90;;;;;;;;;;4911761;29;20943;-94
2023/05/10 03:12:01;;;;;;;2.13;1.13;;;;;;;;;;4943976;29;20797;-92
2023/05/10 03:14:30;;;;;;;2.60;1.43;;;;;;;;;;4942132;29;20467;-94
2023/05/10 03:16:57;;;;;;;3.50;1.80;;;;;;;;;;4942173;29;20463;-93
2023/05/10 03:19:24;;;;;;;6.83;4.87;;;;;;;;;;4945123;29;20982;-94
2023/05/10 03:21:51;;;;;;;5.93;4.70;;;;;;;;;;4937771;29;20427;-94
2023/05/10 03:24:17;;;;;;;2.87;2.10;;;;;;;;;;4943742;29;20448;-94
2023/05/10 03:26:45;;;;;;;2.00;1.27;;;;;;;;;;4944464;29;20447;-94
2023/05/10 03:29:11;;;;;;;2.70;2.03;;;;;;;;;;4946451;29;20470;-93
2023/05/10 03:31:37;;;;;;;1.40;0.97;;;;;;;;;;4942060;29;20428;-94
2023/05/10 03:34:03;;;;;;;4.73;1.90;;;;;;;;;;4943736;29;20497;-94
2023/05/10 03:36:29;;;;;;;1.80;1.30;;;;;;;;;;4928526;29;20431;-93
2023/05/10 03:38:55;;;;;;;2.00;1.67;;;;;;;;;;4941004;28;20438;-94
2023/05/10 03:41:21;;;;;;;2.10;1.53;;;;;;;;;;4944226;29;20435;-93
2023/05/10 03:43:47;;;;;;;2.67;1.70;;;;;;;;;;4910672;29;20920;-93
2023/05/10 03:46:13;;;;;;;1.60;1.20;;;;;;;;;;4947314;29;20487;-93
2023/05/10 03:48:39;;;;;;;3.13;1.50;;;;;;;;;;4920280;29;21204;-93
2023/05/10 03:51:05;;;;;;;2.77;1.13;;;;;;;;;;4936088;29;20443;-93
2023/05/10 03:53:31;;;;;;;1.63;1.30;;;;;;;;;;4908108;29;20439;-93
2023/05/10 03:55:57;;;;;;;1.50;1.30;;;;;;;;;;4939737;29;20528;-93
2023/05/10 03:58:23;;;;;;;2.00;1.23;;;;;;;;;;4939674;29;20767;-92
2023/05/10 04:00:49;;;;;;;1.87;1.20;;;;;;;;;;4938276;29;20511;-93
2023/05/10 04:03:15;;;;;;;2.40;1.23;;;;;;;;;;4934858;29;20669;-92
2023/05/10 04:05:41;;;;;;;1.47;1.17;;;;;;;;;;4942382;29;20464;-93
2023/05/10 04:08:07;;;;;;;6.03;2.60;;;;;;;;;;4944483;29;20519;-93
2023/05/10 04:10:33;;;;;;;1.83;1.50;;;;;;;;;;4912716;29;20439;-93
2023/05/10 04:12:59;;;;;;;1.50;1.10;;;;;;;;;;4941170;29;20851;-93
2023/05/10 04:15:25;;;;;;;1.40;1.10;;;;;;;;;;4933718;29;20460;-93
2023/05/10 04:17:51;;;;;;;4.60;1.83;;;;;;;;;;4922995;29;20435;-93
2023/05/10 04:20:17;;;;;;;1.87;1.00;;;;;;;;;;4926646;29;20500;-93
2023/05/10 04:22:43;;;;;;;2.80;1.47;;;;;;;;;;4943700;29;20466;-93
2023/05/10 04:25:09;;;;;;;3.00;1.83;;;;;;;;;;4943785;29;20806;-92
2023/05/10 04:27:35;;;;;;;1.93;1.73;;;;;;;;;;4933765;29;20455;-93
2023/05/10 04:30:01;;;;;;;1.57;1.47;;;;;;;;;;4934164;29;20450;-93
2023/05/10 04:32:28;;;;;;;1.50;1.27;;;;;;;;;;4934319;29;20440;-93
2023/05/10 04:34:53;;;;;;;1.80;1.47;;;;;;;;;;4942412;29;21027;-93
2023/05/10 04:37:21;;;;;;;1.70;1.33;;;;;;;;;;4928517;29;20470;-93
2023/05/10 04:39:47;;;;;;;1.57;1.17;;;;;;;;;;4941764;29;20431;-93
2023/05/10 04:42:18;;;;;;;3.00;1.77;;;;;;;;;;4944990;29;20439;-93
2023/05/10 04:44:44;;;;;;;1.50;1.30;;;;;;;;;;4925842;29;20448;-93
2023/05/10 04:47:10;;;;;;;1.67;1.33;;;;;;;;;;4936620;29;20513;-93
2023/05/10 04:49:37;;;;;;;3.47;1.60;;;;;;;;;;4940531;28;20432;-93
2023/05/10 04:52:03;;;;;;;2.80;1.33;;;;;;;;;;4940982;29;20700;-94
2023/05/10 04:54:29;;;;;;;2.03;1.53;;;;;;;;;;4934908;29;20535;-93
2023/05/10 04:56:55;;;;;;;4.77;1.17;;;;;;;;;;4916371;28;20549;-95
2023/05/10 04:59:21;;;;;;;1.90;1.43;;;;;;;;;;4943199;29;20876;-95
2023/05/10 05:01:47;;;;;;;1.80;1.57;;;;;;;;;;4943276;29;20483;-95
2023/05/10 05:04:14;;;;;;;1.67;1.40;;;;;;;;;;4941988;29;20452;-89
2023/05/10 05:06:40;;;;;;;1.90;1.37;;;;;;;;;;4923893;29;20427;-91
2023/05/10 05:09:12;;;;;;;4.07;1.20;;;;;;;;;;4945127;28;20439;-96
2023/05/10 05:11:38;;;;;;;5.27;1.17;;;;;;;;;;4945993;29;20448;-91
2023/05/10 05:14:04;;;;;;;2.57;1.07;;;;;;;;;;4943249;29;20462;-90
2023/05/10 05:16:31;;;;;;;2.63;1.10;;;;;;;;;;4952106;29;20840;-87
2023/05/10 05:18:57;;;;;;;1.57;1.13;;;;;;;;;;4938476;29;20934;-90
2023/05/10 05:21:26;;;;;;;1.60;1.30;;;;;;;;;;4905531;29;20452;-89
2023/05/10 05:23:53;;;;;;;1.77;1.13;;;;;;;;;;4936286;29;20464;-96
2023/05/10 05:26:20;;;;;;;2.23;1.00;;;;;;;;;;4951263;29;20408;-96
2023/05/10 05:28:47;;;;;;;1.50;1.17;;;;;;;;;;4947245;28;20451;-96
2023/05/10 05:31:14;;;;;;;2.03;1.23;;;;;;;;;;4955941;28;20443;-94
2023/05/10 05:33:41;;;;;;;2.60;1.30;;;;;;;;;;4916954;29;20445;-90
2023/05/10 05:36:07;;;;;;;1.60;1.40;;;;;;;;;;4873116;29;21289;-90
2023/05/10 05:38:33;;;;;;;2.30;1.43;;;;;;;;;;4920562;29;20460;-87
2023/05/10 05:40:59;;;;;;;2.07;1.10;;;;;;;;;;4897013;29;20481;-90
2023/05/10 05:43:25;;;;;;;2.27;1.47;;;;;;;;;;4899207;29;20442;-91
2023/05/10 05:45:53;;;;;;;2.60;2.37;;;;;;;;;;4914908;29;20616;-91
2023/05/10 05:48:19;;;;;;;2.20;1.17;;;;;;;;;;4915786;29;20505;-92
2023/05/10 05:50:45;;;;;;;1.70;1.03;;;;;;;;;;4916889;29;20524;-91
2023/05/10 05:53:11;;;;;;;1.80;1.10;;;;;;;;;;4912782;29;20449;-91
2023/05/10 05:55:37;;;;;;;1.83;1.13;;;;;;;;;;4896789;29;21136;-91
2023/05/10 05:58:03;;;;;;;1.93;1.47;;;;;;;;;;4918090;29;20437;-87
2023/05/10 06:00:29;;;;;;;2.23;1.00;;;;;;;;;;4920320;29;20965;-91
2023/05/10 06:02:55;;;;;;;2.37;1.40;;;;;;;;;;4916751;29;20424;-90
2023/05/10 06:05:21;;;;;;;1.57;1.30;;;;;;;;;;4888521;29;20583;-88
2023/05/10 06:07:47;;;;;;;2.70;1.73;;;;;;;;;;4902093;29;20433;-90
2023/05/10 06:10:13;;;;;;;5.37;2.43;;;;;;;;;;4881527;29;20441;-91
2023/05/10 06:12:39;;;;;;;2.30;1.70;;;;;;;;;;4923289;29;20431;-89
2023/05/10 06:15:05;;;;;;;3.20;1.60;;;;;;;;;;4943426;29;21085;-92
2023/05/10 06:17:31;;;;;;;1.90;1.33;;;;;;;;;;4942906;29;20443;-89
2023/05/10 06:20:00;;;;;;;4.70;1.40;;;;;;;;;;4941128;29;20521;-89
2023/05/10 06:22:26;;;;;;;1.57;1.43;;;;;;;;;;4936962;29;20450;-93
2023/05/10 06:24:52;;;;;;;3.50;1.33;;;;;;;;;;4944183;29;20423;-92
2023/05/10 06:27:21;;;;;;;4.50;1.70;;;;;;;;;;4941479;29;20424;-90
2023/05/10 06:29:50;;;;;;;1.93;1.20;;;;;;;;;;4945219;29;20969;-92
2023/05/10 06:32:16;;;;;;;3.20;1.77;;;;;;;;;;4944905;29;20477;-91
2023/05/10 06:34:48;;;;;;;3.37;1.50;;;;;;;;;;4912602;29;20474;-91
2023/05/10 06:37:14;;;;;;;3.60;1.70;;;;;;;;;;4947863;29;20440;-90
2023/05/10 06:39:40;;;;;;;1.93;1.60;;;;;;;;;;4941547;29;21009;-90
2023/05/10 06:42:06;;;;;;;2.70;1.77;;;;;;;;;;4927115;29;20444;-89
2023/05/10 06:44:35;;;;;;;4.83;2.40;;;;;;;;;;4947257;29;20439;-93
2023/05/10 06:47:03;;;;;;;2.53;1.23;;;;;;;;;;4936817;29;20443;-88
2023/05/10 06:49:29;;;;;;;1.97;1.47;;;;;;;;;;4949433;29;20466;-89
2023/05/10 06:51:58;;;;;;;2.87;1.83;;;;;;;;;;4942264;29;20528;-88
2023/05/10 06:54:24;;;;;;;2.53;1.73;;;;;;;;;;4935134;29;20472;-93
2023/05/10 06:56:50;;;;;;;3.23;1.63;;;;;;;;;;4936459;29;20524;-88
2023/05/10 06:59:18;;;;;;;7.23;1.53;;;;;;;;;;4927980;29;20450;-89
2023/05/10 07:01:44;;;;;;;1.73;1.40;;;;;;;;;;4912158;29;21646;-89
2023/05/10 07:04:10;;;;;;;1.90;1.40;;;;;;;;;;4924954;29;20495;-89
2023/05/10 07:06:36;;;;;;;5.60;2.17;;;;;;;;;;4932941;29;20816;-90
2023/05/10 07:09:02;;;;;;;1.83;1.30;;;;;;;;;;4932714;29;20468;-89
2023/05/10 07:11:28;;;;;;;4.07;1.40;;;;;;;;;;4933200;29;20447;-91
2023/05/10 07:13:54;;;;;;;1.70;1.30;;;;;;;;;;4939872;29;20439;-91
2023/05/10 07:16:21;;;;;;;2.20;1.70;;;;;;;;;;4909482;29;21135;-91
2023/05/10 07:18:47;;;;;;;1.87;1.60;;;;;;;;;;4948220;29;20415;-90
2023/05/10 07:21:16;;;;;;;2.10;1.47;;;;;;;;;;4940846;29;20427;-91
2023/05/10 07:23:42;;;;;;;4.83;1.70;;;;;;;;;;4942443;29;20479;-91
2023/05/10 07:26:11;;;;;;;2.13;1.33;;;;;;;;;;4938023;29;20454;-92
2023/05/10 07:28:37;;;;;;;3.70;1.70;;;;;;;;;;4935924;29;20439;-91
2023/05/10 07:31:03;;;;;;;1.60;1.23;;;;;;;;;;4940799;29;20445;-90
2023/05/10 07:33:30;;;;;;;2.10;1.73;;;;;;;;;;4919449;29;20499;-93
2023/05/10 07:35:55;;;;;;;6.70;1.40;;;;;;;;;;4922666;29;20470;-91
2023/05/10 07:38:21;;;;;;;1.90;1.20;;;;;;;;;;4943111;29;20424;-91
2023/05/10 07:40:47;;;;;;;4.20;1.47;;;;;;;;;;4910104;29;20424;-91
2023/05/10 07:43:13;;;;;;;1.37;1.10;;;;;;;;;;4940401;29;20431;-92
2023/05/10 07:45:39;;;;;;;1.50;1.23;;;;;;;;;;4939379;28;20474;-90
2023/05/10 07:48:06;;;;;;;1.60;1.10;;;;;;;;;;4939864;29;20452;-91
2023/05/10 07:50:32;;;;;;;1.30;1.20;;;;;;;;;;4937760;29;20444;-92
2023/05/10 07:52:58;;;;;;;2.30;1.00;;;;;;;;;;4922341;29;21002;-90
2023/05/10 07:55:24;;;;;;;4.80;1.10;;;;;;;;;;4940847;29;20467;-91
2023/05/10 07:57:50;;;;;;;3.00;1.37;;;;;;;;;;4932798;29;20467;-91
2023/05/10 08:00:20;;;;;;;2.37;1.00;;;;;;;;;;4937765;29;20439;-91
2023/05/10 08:02:46;;;;;;;1.80;1.00;;;;;;;;;;4933109;29;20439;-91
2023/05/10 08:05:13;;;;;;;1.23;0.93;;;;;;;;;;4931292;29;21258;-92
2023/05/10 08:07:39;;;;;;;2.57;0.90;;;;;;;;;;4927118;29;20498;-92
2023/05/10 08:10:05;;;;;;;3.33;1.27;;;;;;;;;;4938756;29;20454;-91
2023/05/10 08:12:31;;;;;;;2.20;1.30;;;;;;;;;;4932637;29;20452;-92
2023/05/10 08:14:57;;;;;;;1.60;0.90;;;;;;;;;;4936523;29;20882;-90
2023/05/10 08:17:23;;;;;;;2.90;1.17;;;;;;;;;;4917765;29;20441;-90
2023/05/10 08:19:49;;;;;;;2.23;1.23;;;;;;;;;;4929380;28;20485;-90
2023/05/10 08:22:16;;;;;;;9.80;1.10;;;;;;;;;;4930571;29;20810;-90
2023/05/10 08:24:42;;;;;;;1.80;1.07;;;;;;;;;;4929414;29;20433;-91
2023/05/10 08:27:08;;;;;;;1.70;1.10;;;;;;;;;;4936938;28;20487;-91
2023/05/10 08:29:34;;;;;;;2.20;0.93;;;;;;;;;;4935822;29;20427;-89
2023/05/10 08:32:03;;;;;;;2.50;1.13;;;;;;;;;;4941925;29;20427;-89
2023/05/10 08:34:30;;;;;;;1.30;0.93;;;;;;;;;;4937365;29;20518;-89
2023/05/10 08:36:56;;;;;;;2.07;1.10;;;;;;;;;;4904122;29;20440;-89
2023/05/10 08:39:23;;;;;;;1.33;1.03;;;;;;;;;;4926783;29;20817;-89
2023/05/10 08:41:49;;;;;;;3.70;0.90;;;;;;;;;;4931248;29;20483;-89
2023/05/10 08:44:16;;;;;;;2.90;1.10;;;;;;;;;;4927085;29;20424;-90
2023/05/10 08:46:43;;;;;;;1.33;0.93;;;;;;;;;;4937927;29;20552;-90
2023/05/10 08:49:10;;;;;;;2.07;0.97;;;;;;;;;;4938287;29;20810;-91
2023/05/10 08:51:36;;;;;;;2.70;1.30;;;;;;;;;;4907986;29;20447;-90
2023/05/10 08:54:03;;;;;;;1.53;1.03;;;;;;;;;;4939599;28;20494;-89
2023/05/10 08:56:29;;;;;;;1.20;0.90;;;;;;;;;;4939024;29;20533;-90
2023/05/10 08:58:55;;;;;;;1.87;0.87;;;;;;;;;;4938927;29;20448;-89
2023/05/10 09:01:21;;;;;;;1.67;0.70;;;;;;;;;;4941249;29;20435;-89
2023/05/10 09:03:48;;;;;;;2.53;0.90;;;;;;;;;;4939266;29;20927;-94
2023/05/10 09:06:14;;;;;;;1.27;0.77;;;;;;;;;;4944010;28;20431;-89
2023/05/10 09:08:40;;;;;;;2.27;0.80;;;;;;;;;;4922266;29;20442;-90
2023/05/10 09:11:06;;;;;;;1.53;0.90;;;;;;;;;;4943323;29;20447;-87
2023/05/10 09:13:32;;;;;;;1.30;0.80;;;;;;;;;;4901209;29;20499;-88
2023/05/10 09:15:58;;;;;;;1.10;0.70;;;;;;;;;;4933531;29;20498;-89
2023/05/10 09:18:24;;;;;;;1.50;0.87;;;;;;;;;;4910762;29;20466;-88
2023/05/10 09:20:50;;;;;;;3.20;0.70;;;;;;;;;;4938531;29;20471;-90
2023/05/10 09:23:16;;;;;;;2.53;0.80;;;;;;;;;;4942642;29;21127;-89
2023/05/10 09:25:42;;;;;;;1.03;0.60;;;;;;;;;;4908296;29;20447;-89
2023/05/10 09:28:09;;;;;;;1.83;0.80;;;;;;;;;;4938194;29;20443;-88
2023/05/10 09:30:35;;;;;;;1.60;1.00;;;;;;;;;;4916700;29;20486;-90
2023/05/10 09:33:01;;;;;;;2.03;0.83;;;;;;;;;;4941147;29;20428;-89
2023/05/10 09:35:28;;;;;;;2.37;0.80;;;;;;;;;;4940588;29;20464;-88
2023/05/10 09:37:55;;;;;;;1.93;0.83;;;;;;;;;;4940261;28;21021;-89
2023/05/10 09:40:25;;;;;;;2.40;0.90;;;;;;;;;;4940159;29;20424;-89
2023/05/10 09:42:51;;;;;;;1.20;1.00;;;;;;;;;;4952359;29;20434;-89
2023/05/10 09:45:17;;;;;;;6.40;0.87;;;;;;;;;;4930608;29;20425;-89
2023/05/10 09:47:43;;;;;;;2.57;0.90;;;;;;;;;;4938919;29;20974;-88
2023/05/10 09:50:09;;;;;;;1.50;0.90;;;;;;;;;;4939104;29;20512;-89
2023/05/10 09:52:48;;;;;;;28.50;3.73;;;;;;;;;;4938883;29;20428;-92
2023/05/10 09:55:15;;;;;;;1.60;0.80;;;;;;;;;;4933575;29;20506;-91
2023/05/10 09:57:41;;;;;;;1.40;0.90;;;;;;;;;;4935612;29;20436;-91
2023/05/10 10:00:08;;;;;;;1.57;1.00;;;;;;;;;;4954123;29;20463;-92
2023/05/10 10:02:34;;;;;;;2.40;0.70;;;;;;;;;;4918032;29;20992;-92
2023/05/10 10:05:02;;;;;;;1.80;0.90;;;;;;;;;;4914002;29;20434;-91
2023/05/10 10:07:28;;;;;;;1.60;0.83;;;;;;;;;;4916548;29;20443;-92
2023/05/10 10:09:54;;;;;;;1.67;0.80;;;;;;;;;;4911493;29;20440;-92
2023/05/10 10:12:20;;;;;;;6.13;0.73;;;;;;;;;;4933254;29;20527;-91
2023/05/10 10:14:50;;;;;;;1.20;0.60;;;;;;;;;;4896674;29;20563;-90
2023/05/10 10:17:16;;;;;;;1.23;0.80;;;;;;;;;;4922936;29;20446;-91
2023/05/10 10:19:42;;;;;;;1.40;0.70;;;;;;;;;;4925599;29;22441;-93
2023/05/10 10:22:11;;;;;;;1.27;0.90;;;;;;;;;;4946741;29;20446;-92
2023/05/10 10:24:37;;;;;;;1.30;0.80;;;;;;;;;;4907601;29;20490;-91
2023/05/10 10:27:09;;;;;;;1.20;0.80;;;;;;;;;;4934284;29;20431;-93
2023/05/10 10:29:35;;;;;;;1.37;0.73;;;;;;;;;;4912296;29;20727;-92
2023/05/10 10:32:38;;;;;;;1.93;0.60;;;;;;;;;;4938103;29;20428;-91
2023/05/10 10:35:04;;;;;;;3.77;0.80;;;;;;;;;;4912500;29;20534;-92
2023/05/10 10:37:46;;;;;;;2.00;0.70;;;;;;;;;;4942235;29;20472;-94
2023/05/10 10:40:27;;;;;;;1.30;0.80;;;;;;;;;;4933294;29;20456;-91
2023/05/10 10:42:54;;;;;;;1.70;0.80;;;;;;;;;;4938094;29;21010;-92
2023/05/10 10:45:21;;;;;;;1.60;0.93;;;;;;;;;;4945546;29;20467;-91
2023/05/10 10:47:48;;;;;;;3.10;0.73;;;;;;;;;;4945739;29;20469;-90
2023/05/10 10:50:15;;;;;;;1.10;0.70;;;;;;;;;;4942059;29;20450;-94
2023/05/10 10:52:41;;;;;;;1.50;0.80;;;;;;;;;;4939865;29;20498;-90
2023/05/10 10:55:08;;;;;;;1.70;0.73;;;;;;;;;;4939017;29;20463;-90
2023/05/10 10:57:41;;;;;;;1.83;0.90;;;;;;;;;;4941261;29;20427;-92
2023/05/10 11:00:26;;;;;;;1.57;0.90;;;;;;;;;;4945823;29;20550;-88
2023/05/10 11:02:59;;;;;;;2.27;0.87;;;;;;;;;;4942081;29;20428;-93
2023/05/10 11:05:44;;;;;;;1.10;0.70;;;;;;;;;;4937605;29;20416;-91
2023/05/10 11:08:14;;;;;;;4.77;0.80;;;;;;;;;;4943365;29;20948;-88
2023/05/10 11:10:40;;;;;;;3.37;0.87;;;;;;;;;;4944603;29;20486;-91
2023/05/10 11:13:09;;;;;;;1.47;0.90;;;;;;;;;;4944665;29;20437;-92
2023/05/10 11:15:39;;;;;;;1.10;0.70;;;;;;;;;;4939178;29;20459;-90
2023/05/10 11:18:18;;;;;;;4.23;0.77;;;;;;;;;;4928936;29;20513;-90
2023/05/10 11:20:46;;;;;;;1.10;0.70;;;;;;;;;;4945108;28;20440;-89
2023/05/10 11:23:15;;;;;;;2.37;0.80;;;;;;;;;;4940787;29;20471;-90
2023/05/10 11:25:42;;;;;;;1.20;0.70;;;;;;;;;;4943601;29;20436;-91
2023/05/10 11:28:08;;;;;;;1.47;0.67;;;;;;;;;;4941716;29;20444;-90
2023/05/10 11:30:35;;;;;;;1.90;0.87;;;;;;;;;;4929746;29;20499;-91
2023/05/10 11:33:01;;;;;;;2.03;0.90;;;;;;;;;;4939276;29;20444;-90
2023/05/10 11:35:27;;;;;;;1.10;0.70;;;;;;;;;;4927940;29;20475;-88
2023/05/10 11:37:53;;;;;;;1.10;0.70;;;;;;;;;;4944111;29;20760;-91
2023/05/10 11:40:19;;;;;;;2.00;0.93;;;;;;;;;;4924836;29;20427;-92
2023/05/10 11:42:45;;;;;;;1.60;0.87;;;;;;;;;;4921824;29;20450;-88
2023/05/10 11:45:11;;;;;;;1.50;0.90;;;;;;;;;;4912357;29;20447;-90
2023/05/10 11:47:39;;;;;;;2.33;0.90;;;;;;;;;;4935498;29;20442;-90
2023/05/10 11:50:05;;;;;;;1.50;0.90;;;;;;;;;;4938130;29;20428;-89
2023/05/10 11:52:37;;;;;;;1.63;1.10;;;;;;;;;;4939504;29;20447;-91
2023/05/10 11:55:03;;;;;;;3.97;0.93;;;;;;;;;;4937985;29;20515;-89
2023/05/10 11:57:30;;;;;;;1.67;0.80;;;;;;;;;;4908329;29;20444;-89
2023/05/10 11:59:57;;;;;;;2.17;1.00;;;;;;;;;;4919890;29;20439;-90
2023/05/10 12:02:23;;;;;;;2.37;1.17;;;;;;;;;;4935796;29;20940;-89
2023/05/10 12:04:49;;;;;;;2.30;1.10;;;;;;;;;;4935033;29;20440;-88
2023/05/10 12:07:14;;;;;;;1.40;1.00;;;;;;;;;;4928675;29;20416;-89
2023/05/10 12:09:47;;;;;;;2.30;1.00;;;;;;;;;;4946091;29;20423;-90
2023/05/10 12:12:16;;;;;;;1.97;1.10;;;;;;;;;;4917469;29;21436;-90
2023/05/10 12:14:42;;;;;;;1.30;0.87;;;;;;;;;;4937363;29;20461;-89
2023/05/10 12:17:13;;;;;;;2.33;1.00;;;;;;;;;;4937490;29;20442;-90
2023/05/10 12:19:39;;;;;;;2.13;0.93;;;;;;;;;;4928429;29;20420;-91
2023/05/10 12:22:05;;;;;;;4.33;1.23;;;;;;;;;;4946029;29;20420;-90
2023/05/10 12:24:34;;;;;;;3.27;1.20;;;;;;;;;;4910882;29;20430;-90
2023/05/10 12:27:00;;;;;;;1.97;0.97;;;;;;;;;;4918429;29;20435;-91
2023/05/10 12:29:26;;;;;;;2.57;1.10;;;;;;;;;;4916964;29;20440;-90
2023/05/10 12:31:58;;;;;;;3.70;1.30;;;;;;;;;;4948432;29;20607;-89
2023/05/10 12:34:31;;;;;;;1.63;0.90;;;;;;;;;;4937784;29;20473;-92
2023/05/10 12:36:57;;;;;;;4.27;1.30;;;;;;;;;;4904502;29;20674;-91
2023/05/10 12:39:23;;;;;;;1.67;0.90;;;;;;;;;;4916803;29;20439;-91
2023/05/10 12:41:49;;;;;;;2.87;0.90;;;;;;;;;;4917604;29;20546;-90
2023/05/10 12:44:15;;;;;;;2.33;0.90;;;;;;;;;;4938518;29;20448;-88
2023/05/10 12:46:41;;;;;;;1.40;1.00;;;;;;;;;;4909110;29;20464;-89
2023/05/10 12:49:07;;;;;;;3.50;1.30;;;;;;;;;;4956338;29;20436;-90
2023/05/10 12:51:34;;;;;;;1.83;1.10;;;;;;;;;;4919386;29;20436;-91
2023/05/10 12:54:00;;;;;;;2.80;1.20;;;;;;;;;;4939808;29;20446;-90
2023/05/10 12:56:26;;;;;;;1.77;1.07;;;;;;;;;;4933248;29;20531;-91
2023/05/10 12:58:52;;;;;;;1.83;0.93;;;;;;;;;;4936879;29;20527;-91
2023/05/10 13:01:20;;;;;;;2.30;1.27;;;;;;;;;;4938608;29;20913;-90
2023/05/10 13:03:46;;;;;;;3.43;1.20;;;;;;;;;;4937169;29;20451;-91
2023/05/10 13:06:13;;;;;;;2.53;1.13;;;;;;;;;;4943960;29;20439;-89
2023/05/10 13:08:39;;;;;;;2.60;1.87;;;;;;;;;;4922731;29;20423;-90
2023/05/10 13:11:06;;;;;;;1.83;1.23;;;;;;;;;;4923936;29;20539;-89
2023/05/10 13:13:32;;;;;;;1.50;1.20;;;;;;;;;;4920443;29;20444;-89
2023/05/10 13:15:58;;;;;;;2.40;1.20;;;;;;;;;;4916457;29;20480;-89
2023/05/10 13:18:24;;;;;;;2.53;1.10;;;;;;;;;;4907890;29;21017;-89
2023/05/10 13:20:50;;;;;;;3.30;1.47;;;;;;;;;;4885112;29;21110;-90
2023/05/10 13:23:16;;;;;;;1.60;1.00;;;;;;;;;;4884737;29;20473;-89
2023/05/10 13:25:42;;;;;;;1.50;1.10;;;;;;;;;;4899702;29;20495;-89
2023/05/10 13:28:08;;;;;;;1.60;1.30;;;;;;;;;;4903792;29;20478;-91
2023/05/10 13:30:34;;;;;;;3.60;1.40;;;;;;;;;;4883700;29;20445;-90
2023/05/10 13:33:00;;;;;;;3.50;1.57;;;;;;;;;;4889300;29;20465;-89
2023/05/10 13:35:26;;;;;;;2.03;1.10;;;;;;;;;;4888279;29;20468;-89
2023/05/10 13:37:53;;;;;;;3.80;1.27;;;;;;;;;;4878842;29;20525;-90
2023/05/10 13:40:19;;;;;;;1.20;0.70;;;;;;;;;;4891203;29;20424;-90
2023/05/10 13:42:45;;;;;;;1.80;1.20;;;;;;;;;;4901118;29;20532;-90
2023/05/10 13:45:12;;;;;;;1.80;1.00;;;;;;;;;;4881481;29;20466;-91
2023/05/10 13:47:38;;;;;;;2.50;1.33;;;;;;;;;;4889580;29;20452;-91
2023/05/10 13:50:04;;;;;;;1.70;1.23;;;;;;;;;;4919686;29;20429;-90
2023/05/10 13:52:30;;;;;;;4.37;1.30;;;;;;;;;;4933540;29;20441;-91
2023/05/10 13:54:57;;;;;;;2.00;1.03;;;;;;;;;;4920234;29;21064;-90
2023/05/10 13:57:23;;;;;;;2.23;1.23;;;;;;;;;;4946127;29;20431;-90
2023/05/10 13:59:50;;;;;;;5.60;1.13;;;;;;;;;;4915129;29;20440;-91
2023/05/10 14:02:16;;;;;;;2.60;1.00;;;;;;;;;;4920905;29;20442;-90
2023/05/10 14:04:42;;;;;;;2.27;1.20;;;;;;;;;;4934701;29;20535;-92
2023/05/10 14:07:08;;;;;;;1.50;1.00;;;;;;;;;;4920568;29;20435;-90
2023/05/10 14:09:34;;;;;;;3.10;1.03;;;;;;;;;;4943327;29;20514;-91
2023/05/10 14:12:00;;;;;;;4.80;1.10;;;;;;;;;;4943935;29;20484;-90
2023/05/10 14:14:28;;;;;;;1.40;0.90;;;;;;;;;;4934944;29;20517;-90
2023/05/10 14:16:54;;;;;;;2.90;1.07;;;;;;;;;;4939415;29;20794;-91
2023/05/10 14:19:21;;;;;;;1.70;0.80;;;;;;;;;;4939215;29;20463;-90
2023/05/10 14:21:47;;;;;;;3.00;0.87;;;;;;;;;;4935924;29;20472;-92
2023/05/10 14:24:13;;;;;;;2.17;0.90;;;;;;;;;;4949032;28;20863;-92
2023/05/10 14:26:39;;;;;;;3.93;0.93;;;;;;;;;;4947284;29;20428;-92
2023/05/10 14:29:05;;;;;;;1.57;0.80;;;;;;;;;;4942120;29;20424;-90
2023/05/10 14:31:31;;;;;;;3.00;1.07;;;;;;;;;;4940339;29;20447;-91
2023/05/10 14:33:57;;;;;;;2.87;1.50;;;;;;;;;;4938274;29;20432;-91
2023/05/10 14:36:23;;;;;;;1.90;0.83;;;;;;;;;;4918361;29;20466;-88
2023/05/10 14:38:50;;;;;;;2.03;1.00;;;;;;;;;;4904155;29;20463;-89
2023/05/10 14:41:17;;;;;;;1.73;1.20;;;;;;;;;;4941838;29;20435;-88
2023/05/10 14:43:43;;;;;;;3.47;1.30;;;;;;;;;;4935926;29;20440;-89
2023/05/10 14:46:09;;;;;;;2.37;1.70;;;;;;;;;;4931802;29;20447;-88